LTCO

Ağrı Airport

Turkey
TAF LTCO 210140Z 2103/2112 VRB02KT 9999 BKN025 BKN070 TEMPO 2103/2106 -SNRA
Issued Valid From Valid To
Apr-21 @ 01:40 UTC
(2 hours ago)
Apr-21 @ 03:00 UTC
(44 minutes ago)
Apr-21 @ 12:00 UTC
(in 8 hours)
Apr-21 @ 03:00 to Apr-21 @ 12:00
TAF LTCO 210140Z 2103/2112 VRB02KT 9999 BKN025 BKN070
Wind Visibility Clouds
Variable at 2 knots 10,000+ meters
  • Broken at 2,500' AGL
  • Broken at 7,000' AGL
Temporary Apr-21 @ 03:00 to Apr-21 @ 06:00
TEMPO 2103/2106 -SNRA
Conditions
  • Light Snow
  • Light Rain
TAF LTCO 210140Z 2103/2112 VRB02KT 9999 BKN025 BKN070 TEMPO 2103/2106 -SNRA
Issued Apr-21 @ 01:40 UTC
(2 hours ago)
Valid From Apr-21 @ 03:00 UTC
(44 minutes ago)
Valid To Apr-21 @ 12:00 UTC
(in 8 hours)
Apr-21 @ 03:00 - Apr-21 @ 12:00
Wind Visibility
Variable at 2 knots 10,000+ meters
Clouds
  • Broken at 2,500' AGL
  • Broken at 7,000' AGL
Temporary Apr-21 @ 03:00 - Apr-21 @ 06:00
Conditions
  • Light Snow
  • Light Rain